createdAt,value
2023-02-16T00:00:28.290Z,57.97
2023-02-16T00:02:55.900Z,56.33
2023-02-16T00:05:34.175Z,55.17
2023-02-16T00:08:01.963Z,53.60
2023-02-16T00:10:35.494Z,51.27
2023-02-16T00:13:25.159Z,54.60
2023-02-16T00:15:52.497Z,53.73
2023-02-16T00:18:22.465Z,49.00
2023-02-16T00:20:50.127Z,49.67
2023-02-16T00:23:17.654Z,49.43
2023-02-16T00:25:45.540Z,47.87
2023-02-16T00:28:17.992Z,48.23
2023-02-16T00:30:45.356Z,47.43
2023-02-16T00:33:17.957Z,42.00
2023-02-16T00:35:45.427Z,44.00
2023-02-16T00:38:13.213Z,44.70
2023-02-16T00:40:41.982Z,48.83
2023-02-16T00:43:17.244Z,51.57
2023-02-16T00:45:44.537Z,49.10
2023-02-16T00:48:12.136Z,47.20
2023-02-16T00:50:39.364Z,44.13
2023-02-16T00:53:06.708Z,46.43
2023-02-16T00:55:35.710Z,48.20
2023-02-16T00:58:05.813Z,45.40
2023-02-16T01:00:38.251Z,43.97
2023-02-16T01:03:13.156Z,45.60
2023-02-16T01:05:40.721Z,44.63
2023-02-16T01:08:31.144Z,66.03
2023-02-16T01:11:07.851Z,54.60
2023-02-16T01:13:50.062Z,52.77
2023-02-16T01:16:38.771Z,49.93
2023-02-16T01:19:06.547Z,45.80
2023-02-16T01:21:33.781Z,47.67
2023-02-16T01:24:00.940Z,43.07
2023-02-16T01:26:28.469Z,43.97
2023-02-16T01:28:55.703Z,44.33
2023-02-16T01:31:23.042Z,45.93
2023-02-16T01:33:51.030Z,43.67
2023-02-16T01:36:34.247Z,48.10
2023-02-16T01:39:02.289Z,43.77
2023-02-16T01:41:44.511Z,43.93
2023-02-16T01:44:39.644Z,43.10
2023-02-16T01:47:25.211Z,45.63
2023-02-16T01:49:52.469Z,42.53
2023-02-16T01:52:38.145Z,41.93
2023-02-16T01:55:20.665Z,42.67
2023-02-16T01:57:58.731Z,39.63
2023-02-16T02:00:31.736Z,42.00
2023-02-16T02:03:20.669Z,42.23
2023-02-16T02:05:51.602Z,49.00
2023-02-16T02:08:46.658Z,46.73
2023-02-16T02:11:28.010Z,47.07
2023-02-16T02:14:07.599Z,54.10
2023-02-16T02:16:35.297Z,51.53
2023-02-16T02:19:02.650Z,58.27
2023-02-16T02:22:17.174Z,47.90
2023-02-16T02:25:14.845Z,44.87
2023-02-16T02:27:52.728Z,43.97
2023-02-16T02:30:52.193Z,45.40
2023-02-16T02:33:36.311Z,45.47
2023-02-16T02:36:31.081Z,43.53
2023-02-16T02:39:25.753Z,39.43
2023-02-16T02:42:07.195Z,38.37
2023-02-16T02:44:47.690Z,39.60
2023-02-16T02:47:15.113Z,38.73
2023-02-16T02:49:53.445Z,41.10
2023-02-16T02:52:22.531Z,38.77
2023-02-16T02:55:09.109Z,40.87
2023-02-16T02:58:03.837Z,40.00
2023-02-16T03:00:51.898Z,40.27
2023-02-16T03:03:34.241Z,50.57
2023-02-16T03:06:19.349Z,59.63
2023-02-16T03:08:50.424Z,52.23
2023-02-16T03:11:48.078Z,52.43
2023-02-16T03:14:38.223Z,48.50
2023-02-16T03:17:31.871Z,45.40
2023-02-16T03:20:20.147Z,50.33
2023-02-16T03:23:06.590Z,49.37
2023-02-16T03:25:55.979Z,45.33
2023-02-16T03:28:45.206Z,43.87
2023-02-16T03:31:17.457Z,46.37
2023-02-16T03:33:46.527Z,46.00
2023-02-16T03:36:14.108Z,62.77
2023-02-16T03:38:41.582Z,55.47
2023-02-16T03:41:08.772Z,50.60
2023-02-16T03:43:36.148Z,48.43
2023-02-16T03:46:03.503Z,42.80
2023-02-16T03:48:30.725Z,41.80
2023-02-16T03:50:58.029Z,37.77
2023-02-16T03:53:26.092Z,41.13
2023-02-16T03:55:53.566Z,38.70
2023-02-16T03:58:23.764Z,43.70
2023-02-16T04:00:52.907Z,42.00
2023-02-16T04:03:20.119Z,44.20
2023-02-16T04:05:47.279Z,43.53
2023-02-16T04:08:14.608Z,40.37
2023-02-16T04:10:41.983Z,42.53
2023-02-16T04:13:09.749Z,40.73
2023-02-16T04:15:37.156Z,38.13
2023-02-16T04:18:04.463Z,41.47
2023-02-16T04:20:33.494Z,41.83
2023-02-16T04:23:01.564Z,42.80
2023-02-16T04:25:29.706Z,39.03
2023-02-16T04:27:57.274Z,40.40
2023-02-16T04:30:27.318Z,42.33
2023-02-16T04:32:55.030Z,43.17
2023-02-16T04:35:22.740Z,42.70
2023-02-16T04:37:49.983Z,42.70
2023-02-16T04:40:18.618Z,42.47
2023-02-16T04:42:46.518Z,41.73
2023-02-16T04:45:14.724Z,42.70
2023-02-16T04:47:42.054Z,43.60
2023-02-16T04:50:10.183Z,42.60
2023-02-16T04:52:37.930Z,43.10
2023-02-16T04:55:06.613Z,41.50
2023-02-16T04:57:33.841Z,42.80
2023-02-16T05:00:01.076Z,44.57
2023-02-16T05:02:28.310Z,41.70
2023-02-16T05:04:55.860Z,44.33
2023-02-16T05:07:23.399Z,47.23
2023-02-16T05:09:51.813Z,44.23
2023-02-16T05:12:37.812Z,49.03
2023-02-16T05:15:06.248Z,60.17
2023-02-16T05:17:33.535Z,57.57
2023-02-16T05:20:02.065Z,47.97
2023-02-16T05:22:29.358Z,41.70
2023-02-16T05:24:56.541Z,44.13
2023-02-16T05:27:28.984Z,45.40
2023-02-16T05:29:56.605Z,51.47
2023-02-16T05:32:24.102Z,41.53
2023-02-16T05:34:51.400Z,40.93
2023-02-16T05:37:19.165Z,42.07
2023-02-16T05:39:46.634Z,38.93
2023-02-16T05:42:14.138Z,39.73
2023-02-16T05:44:41.504Z,40.13
2023-02-16T05:47:08.746Z,40.53
2023-02-16T05:49:36.138Z,45.83
2023-02-16T05:52:03.585Z,44.33
2023-02-16T05:54:30.876Z,42.53
2023-02-16T05:56:58.173Z,44.47
2023-02-16T05:59:25.476Z,75.60
2023-02-16T06:01:52.830Z,68.43
2023-02-16T06:04:21.245Z,87.00
2023-02-16T06:06:48.754Z,61.43
2023-02-16T06:09:15.943Z,61.13
2023-02-16T06:11:43.549Z,55.97
2023-02-16T06:14:16.578Z,65.10
2023-02-16T06:16:46.596Z,67.70
2023-02-16T06:19:14.472Z,80.77
2023-02-16T06:21:41.753Z,87.00
2023-02-16T06:24:10.495Z,111.83
2023-02-16T06:26:38.069Z,96.53
2023-02-16T06:29:06.263Z,81.07
2023-02-16T06:31:36.182Z,76.63
2023-02-16T06:34:04.445Z,70.40
2023-02-16T06:36:32.077Z,65.03
2023-02-16T06:38:59.369Z,60.97
2023-02-16T06:41:32.505Z,58.60
2023-02-16T06:44:05.912Z,56.80
2023-02-16T06:46:33.375Z,62.60
2023-02-16T06:49:01.224Z,64.87
2023-02-16T06:51:29.091Z,71.80
2023-02-16T06:53:56.368Z,62.70
2023-02-16T06:56:24.179Z,64.93
2023-02-16T06:58:51.747Z,64.57
2023-02-16T07:01:23.493Z,62.10
2023-02-16T07:03:52.665Z,61.73
2023-02-16T07:06:20.711Z,63.33
2023-02-16T07:08:47.964Z,53.33
2023-02-16T07:11:15.914Z,49.53
2023-02-16T07:13:43.496Z,45.33
2023-02-16T07:16:10.909Z,55.37
2023-02-16T07:18:38.675Z,48.70
2023-02-16T07:21:07.059Z,46.23
2023-02-16T07:23:34.887Z,56.47
2023-02-16T07:26:02.473Z,62.57
2023-02-16T07:28:31.378Z,58.50
2023-02-16T07:30:58.774Z,50.90
2023-02-16T07:33:26.135Z,53.57
2023-02-16T07:35:53.879Z,60.93
2023-02-16T07:38:21.067Z,50.20
2023-02-16T07:40:48.481Z,44.43
2023-02-16T07:43:15.606Z,47.00
2023-02-16T07:45:43.022Z,47.17
2023-02-16T07:48:10.427Z,46.83
2023-02-16T07:50:37.856Z,60.00
2023-02-16T07:53:05.069Z,58.07
2023-02-16T07:55:32.472Z,42.30
2023-02-16T07:58:00.444Z,48.20
2023-02-16T08:00:27.919Z,52.43
2023-02-16T08:02:55.321Z,48.60
2023-02-16T08:05:22.601Z,47.27
2023-02-16T08:07:49.752Z,49.57
2023-02-16T08:10:17.233Z,50.57
2023-02-16T08:12:44.823Z,53.77
2023-02-16T08:15:12.532Z,53.67
2023-02-16T08:17:39.900Z,43.93
2023-02-16T08:20:08.914Z,45.70
2023-02-16T08:22:37.354Z,45.70
2023-02-16T08:25:07.025Z,43.70
2023-02-16T08:27:35.966Z,43.40
2023-02-16T08:30:03.593Z,47.83
2023-02-16T08:32:31.055Z,42.40
2023-02-16T08:34:58.761Z,64.57
2023-02-16T08:37:26.445Z,53.47
2023-02-16T08:39:54.088Z,53.03
2023-02-16T08:42:21.725Z,43.20
2023-02-16T08:44:49.145Z,38.43
2023-02-16T08:47:18.674Z,44.20
2023-02-16T08:49:46.710Z,45.33
2023-02-16T08:52:14.132Z,40.70
2023-02-16T08:54:41.433Z,35.00
2023-02-16T08:57:08.656Z,33.03
2023-02-16T08:59:35.837Z,53.73
2023-02-16T09:02:03.138Z,34.37
2023-02-16T09:04:30.432Z,42.43
2023-02-16T09:07:00.193Z,51.57
2023-02-16T09:09:28.829Z,43.57
2023-02-16T09:11:56.461Z,37.10
2023-02-16T09:14:26.749Z,33.10
2023-02-16T09:16:54.128Z,36.53
2023-02-16T09:19:22.194Z,33.90
2023-02-16T09:21:51.434Z,32.80
2023-02-16T09:24:19.560Z,34.17
2023-02-16T09:26:46.921Z,31.57
2023-02-16T09:29:15.086Z,32.70
2023-02-16T09:31:44.569Z,31.53
2023-02-16T09:34:20.553Z,30.67
2023-02-16T09:36:48.360Z,28.53
2023-02-16T09:39:19.460Z,29.83
2023-02-16T09:42:16.204Z,28.50
2023-02-16T09:45:05.436Z,30.37
2023-02-16T09:47:37.420Z,28.83
2023-02-16T09:50:14.752Z,26.40
2023-02-16T09:52:52.274Z,27.80
2023-02-16T09:55:23.038Z,26.10
2023-02-16T09:58:28.143Z,26.23
2023-02-16T10:01:05.626Z,26.30
2023-02-16T10:03:38.646Z,26.37
2023-02-16T10:06:28.184Z,27.27
2023-02-16T10:09:04.888Z,26.50
2023-02-16T10:11:49.077Z,27.43
2023-02-16T10:14:41.480Z,27.37
2023-02-16T10:17:33.931Z,26.37
2023-02-16T10:20:23.504Z,27.40
2023-02-16T10:23:14.913Z,26.47
2023-02-16T10:26:12.762Z,27.53
2023-02-16T10:28:49.639Z,30.17
2023-02-16T10:31:47.643Z,28.57
2023-02-16T10:34:22.627Z,30.00
2023-02-16T10:37:19.708Z,27.77
2023-02-16T10:39:51.105Z,27.37
2023-02-16T10:42:50.521Z,26.17
2023-02-16T10:45:21.430Z,27.20
2023-02-16T10:47:49.172Z,26.67
2023-02-16T10:50:38.475Z,25.20
2023-02-16T10:53:36.785Z,25.23
2023-02-16T10:56:22.292Z,25.27
2023-02-16T10:58:51.561Z,23.90
2023-02-16T11:01:25.384Z,26.43
2023-02-16T11:03:55.386Z,24.37
2023-02-16T11:06:25.850Z,24.07
2023-02-16T11:08:58.016Z,26.03
2023-02-16T11:11:30.003Z,24.07
2023-02-16T11:14:09.632Z,26.73
2023-02-16T11:16:37.518Z,23.87
2023-02-16T11:19:25.113Z,26.53
2023-02-16T11:21:56.846Z,27.20
2023-02-16T11:24:26.457Z,26.17
2023-02-16T11:27:04.675Z,23.57
2023-02-16T11:29:32.420Z,23.73
2023-02-16T11:32:06.933Z,23.97
2023-02-16T11:34:36.097Z,22.70
2023-02-16T11:37:21.740Z,22.53
2023-02-16T11:40:02.785Z,23.37
2023-02-16T11:42:35.303Z,24.77
2023-02-16T11:45:04.724Z,22.40
2023-02-16T11:47:41.852Z,22.57
2023-02-16T11:50:22.165Z,25.00
2023-02-16T11:52:54.618Z,23.57
2023-02-16T11:55:33.607Z,25.03
2023-02-16T11:58:30.539Z,26.50
2023-02-16T12:01:18.185Z,23.03
2023-02-16T12:04:13.029Z,25.63
2023-02-16T12:06:49.927Z,22.43
2023-02-16T12:09:39.160Z,21.67
2023-02-16T12:12:21.345Z,20.37
2023-02-16T12:15:03.727Z,20.23
2023-02-16T12:17:45.047Z,20.87
2023-02-16T12:20:32.372Z,20.87
2023-02-16T12:23:38.614Z,21.67
2023-02-16T12:26:33.409Z,20.07
2023-02-16T12:29:20.940Z,21.03
2023-02-16T12:32:00.818Z,20.70
2023-02-16T12:34:49.512Z,19.07
2023-02-16T12:37:16.887Z,20.03
2023-02-16T12:39:50.068Z,17.80
2023-02-16T12:42:47.199Z,19.43
2023-02-16T12:45:19.171Z,18.63
2023-02-16T12:47:49.553Z,20.90
2023-02-16T12:50:35.600Z,19.00
2023-02-16T12:53:16.103Z,22.00
2023-02-16T12:55:48.340Z,17.87
2023-02-16T12:58:31.367Z,18.30
2023-02-16T13:01:05.301Z,21.13
2023-02-16T13:03:40.693Z,20.60
2023-02-16T13:06:17.376Z,23.37
2023-02-16T13:09:13.827Z,21.90
2023-02-16T13:12:07.158Z,20.33
2023-02-16T13:14:42.073Z,18.33
2023-02-16T13:17:19.085Z,17.73
2023-02-16T13:19:47.450Z,17.20
2023-02-16T13:22:47.219Z,17.80
2023-02-16T13:25:51.649Z,18.40
2023-02-16T13:28:37.983Z,17.37
2023-02-16T13:31:08.616Z,18.00
2023-02-16T13:34:02.872Z,19.20
2023-02-16T13:37:00.378Z,18.17
2023-02-16T13:39:43.271Z,17.60
2023-02-16T13:42:29.169Z,17.93
2023-02-16T13:45:04.957Z,18.37
2023-02-16T13:47:39.287Z,25.17
2023-02-16T13:50:27.329Z,18.43
2023-02-16T13:52:57.919Z,18.20
2023-02-16T13:55:32.828Z,16.87
2023-02-16T13:58:14.855Z,16.67
2023-02-16T14:00:48.225Z,17.20
2023-02-16T14:03:20.648Z,17.13
2023-02-16T14:05:48.879Z,16.87
2023-02-16T14:08:16.077Z,16.30
2023-02-16T14:10:55.643Z,16.20
2023-02-16T14:13:43.828Z,16.33
2023-02-16T14:16:19.118Z,17.33
2023-02-16T14:18:58.766Z,17.80
2023-02-16T14:21:38.480Z,19.27
2023-02-16T14:24:12.044Z,16.70
2023-02-16T14:27:06.669Z,17.30
2023-02-16T14:29:46.030Z,18.07
2023-02-16T14:32:14.002Z,17.70
2023-02-16T14:34:48.944Z,18.40
2023-02-16T14:37:16.516Z,17.63
2023-02-16T14:40:06.491Z,18.30
2023-02-16T14:42:36.109Z,18.57
2023-02-16T14:45:19.801Z,18.27
2023-02-16T14:48:13.786Z,18.57
2023-02-16T14:51:20.867Z,18.93
2023-02-16T14:54:02.567Z,20.00
2023-02-16T14:57:12.992Z,18.97
2023-02-16T14:59:53.022Z,18.50
2023-02-16T15:02:30.016Z,20.00
2023-02-16T15:05:00.266Z,20.00
2023-02-16T15:07:29.085Z,20.10
2023-02-16T15:09:59.471Z,20.00
2023-02-16T15:12:32.840Z,20.60
2023-02-16T15:15:04.632Z,20.10
2023-02-16T15:17:46.447Z,19.77
2023-02-16T15:20:40.041Z,20.17
2023-02-16T15:23:24.022Z,19.83
2023-02-16T15:26:00.889Z,20.87
2023-02-16T15:28:34.064Z,20.20
2023-02-16T15:31:08.300Z,21.30
2023-02-16T15:33:45.010Z,20.90
2023-02-16T15:36:18.992Z,21.10
2023-02-16T15:39:02.987Z,21.80
2023-02-16T15:41:32.131Z,23.37
2023-02-16T15:44:04.100Z,21.27
2023-02-16T15:46:44.259Z,21.10
2023-02-16T15:49:45.270Z,23.20
2023-02-16T15:52:19.608Z,27.30
2023-02-16T15:54:48.974Z,23.77
2023-02-16T15:57:32.438Z,26.17
2023-02-16T16:00:20.992Z,43.07
2023-02-16T16:02:51.640Z,58.37
2023-02-16T16:05:28.290Z,77.53
2023-02-16T16:07:57.119Z,64.20
2023-02-16T16:10:32.304Z,88.60
2023-02-16T16:13:15.746Z,219.37
2023-02-16T16:15:47.025Z,95.87
2023-02-16T16:18:44.564Z,73.40
2023-02-16T16:21:37.090Z,42.33
2023-02-16T16:24:09.695Z,37.83
2023-02-16T16:26:52.688Z,37.03
2023-02-16T16:29:32.424Z,55.20
2023-02-16T16:32:04.662Z,39.70
2023-02-16T16:34:38.895Z,28.80
2023-02-16T16:37:19.368Z,22.67
2023-02-16T16:40:02.954Z,22.87
2023-02-16T16:42:31.501Z,26.10
2023-02-16T16:45:19.589Z,32.97
2023-02-16T16:47:53.421Z,29.10
2023-02-16T16:50:39.622Z,39.43
2023-02-16T16:53:25.524Z,33.40
2023-02-16T16:55:54.371Z,28.47
2023-02-16T16:58:22.543Z,26.13
2023-02-16T17:00:50.224Z,23.83
2023-02-16T17:03:19.346Z,22.80
2023-02-16T17:05:46.650Z,24.00
2023-02-16T17:08:14.783Z,40.00
2023-02-16T17:10:43.543Z,39.00
2023-02-16T17:13:20.389Z,27.43
2023-02-16T17:16:15.291Z,70.93
2023-02-16T17:18:42.698Z,31.77
2023-02-16T17:21:14.259Z,21.60
2023-02-16T17:23:50.424Z,20.27
2023-02-16T17:26:20.308Z,20.53
2023-02-16T17:28:47.745Z,21.63
2023-02-16T17:31:15.053Z,20.13
2023-02-16T17:33:42.984Z,19.70
2023-02-16T17:36:15.068Z,20.10
2023-02-16T17:38:43.072Z,21.40
2023-02-16T17:41:23.379Z,13.90
2023-02-16T17:43:51.278Z,19.37
2023-02-16T17:46:20.643Z,20.30
2023-02-16T17:48:54.707Z,21.03
2023-02-16T17:51:25.886Z,20.67
2023-02-16T17:53:53.208Z,16.10
2023-02-16T17:56:23.918Z,24.63
2023-02-16T17:58:51.556Z,18.00
2023-02-16T18:01:20.149Z,24.50
2023-02-16T18:03:48.938Z,21.80
2023-02-16T18:06:20.554Z,23.10
2023-02-16T18:08:48.999Z,22.03
2023-02-16T18:11:16.644Z,21.17
2023-02-16T18:13:43.993Z,20.67
2023-02-16T18:16:19.442Z,22.80
2023-02-16T18:18:47.460Z,21.17
2023-02-16T18:21:14.801Z,22.83
2023-02-16T18:23:42.488Z,60.93
2023-02-16T18:26:16.285Z,57.13
2023-02-16T18:28:44.267Z,95.10
2023-02-16T18:31:15.099Z,91.33
2023-02-16T18:33:42.558Z,178.10
2023-02-16T18:36:10.666Z,76.37
2023-02-16T18:38:39.013Z,40.43
2023-02-16T18:41:07.012Z,27.33
2023-02-16T18:43:35.987Z,60.40
2023-02-16T18:46:10.192Z,79.77
2023-02-16T18:48:40.732Z,56.50
2023-02-16T18:51:09.434Z,24.73
2023-02-16T18:53:40.785Z,22.67
2023-02-16T18:56:10.050Z,21.63
2023-02-16T18:58:38.079Z,29.50
2023-02-16T19:01:29.635Z,33.53
2023-02-16T19:03:57.846Z,24.27
2023-02-16T19:06:25.196Z,21.57
2023-02-16T19:08:52.772Z,20.43
2023-02-16T19:11:21.456Z,22.47
2023-02-16T19:13:49.104Z,21.50
2023-02-16T19:16:17.453Z,21.80
2023-02-16T19:18:45.327Z,20.33
2023-02-16T19:21:15.042Z,20.77
2023-02-16T19:23:42.645Z,21.13
2023-02-16T19:26:15.868Z,36.73
2023-02-16T19:28:43.724Z,44.23
2023-02-16T19:31:22.951Z,42.80
2023-02-16T19:33:50.815Z,32.47
2023-02-16T19:36:19.683Z,58.43
2023-02-16T19:38:46.978Z,59.53
2023-02-16T19:41:27.160Z,27.80
2023-02-16T19:43:54.680Z,21.60
2023-02-16T19:46:22.135Z,27.77
2023-02-16T19:48:49.492Z,44.63
2023-02-16T19:51:17.128Z,31.83
2023-02-16T19:53:44.968Z,23.40
2023-02-16T19:56:14.982Z,18.57
2023-02-16T19:58:42.387Z,22.07
2023-02-16T20:01:12.939Z,33.87
2023-02-16T20:03:40.783Z,26.30
2023-02-16T20:06:21.149Z,24.43
2023-02-16T20:08:50.449Z,24.63
2023-02-16T20:11:20.743Z,24.00
2023-02-16T20:13:48.361Z,22.73
2023-02-16T20:16:17.228Z,23.47
2023-02-16T20:18:45.538Z,21.63
2023-02-16T20:21:19.179Z,22.03
2023-02-16T20:23:48.963Z,20.37
2023-02-16T20:26:19.266Z,22.63
2023-02-16T20:28:50.863Z,22.33
2023-02-16T20:31:25.154Z,20.70
2023-02-16T20:33:53.469Z,21.10
2023-02-16T20:36:21.150Z,22.80
2023-02-16T20:38:51.109Z,21.13
2023-02-16T20:41:19.756Z,23.37
2023-02-16T20:43:47.697Z,21.77
2023-02-16T20:46:15.663Z,23.93
2023-02-16T20:48:43.456Z,25.30
2023-02-16T20:51:12.683Z,59.97
2023-02-16T20:53:40.930Z,40.60
2023-02-16T20:56:17.957Z,80.77
2023-02-16T20:58:47.309Z,37.50
2023-02-16T21:01:27.067Z,89.30
2023-02-16T21:03:56.654Z,134.27
2023-02-16T21:06:24.202Z,110.47
2023-02-16T21:08:51.965Z,135.03
2023-02-16T21:11:19.355Z,53.20
2023-02-16T21:13:46.946Z,48.77
2023-02-16T21:16:15.108Z,30.63
2023-02-16T21:18:43.154Z,30.23
2023-02-16T21:21:15.968Z,37.83
2023-02-16T21:23:49.559Z,39.67
2023-02-16T21:26:18.641Z,34.63
2023-02-16T21:28:46.461Z,24.20
2023-02-16T21:31:21.006Z,22.80
2023-02-16T21:33:48.950Z,23.77
2023-02-16T21:36:20.586Z,23.50
2023-02-16T21:38:48.937Z,25.73
2023-02-16T21:41:25.664Z,23.87
2023-02-16T21:44:00.950Z,23.87
2023-02-16T21:46:38.438Z,23.30
2023-02-16T21:49:08.584Z,25.37
2023-02-16T21:51:38.625Z,24.90
2023-02-16T21:54:07.110Z,21.50
2023-02-16T21:56:36.488Z,23.83
2023-02-16T21:59:05.699Z,23.53
2023-02-16T22:01:45.068Z,24.27
2023-02-16T22:04:15.819Z,24.43
2023-02-16T22:06:46.206Z,23.23
2023-02-16T22:09:21.466Z,27.80
2023-02-16T22:11:49.745Z,40.40
2023-02-16T22:14:17.467Z,55.93
2023-02-16T22:16:46.379Z,55.20
2023-02-16T22:19:16.278Z,15.50
2023-02-16T22:21:45.386Z,25.10
2023-02-16T22:24:14.804Z,22.77
2023-02-16T22:26:46.775Z,48.47
2023-02-16T22:29:14.323Z,24.30
2023-02-16T22:31:46.458Z,22.77
2023-02-16T22:34:16.196Z,25.27
2023-02-16T22:36:43.540Z,25.63
2023-02-16T22:39:13.359Z,27.07
2023-02-16T22:41:41.461Z,24.67
2023-02-16T22:44:10.236Z,24.47
2023-02-16T22:46:37.655Z,26.97
2023-02-16T22:49:04.809Z,23.93
2023-02-16T22:51:32.899Z,25.73
2023-02-16T22:54:01.907Z,23.67
2023-02-16T22:56:30.371Z,23.90
2023-02-16T22:58:58.843Z,23.00
2023-02-16T23:01:28.968Z,25.20
2023-02-16T23:03:58.110Z,22.97
2023-02-16T23:06:31.738Z,23.10
2023-02-16T23:09:01.998Z,22.87
2023-02-16T23:11:29.234Z,23.17
2023-02-16T23:13:56.638Z,21.37
2023-02-16T23:16:25.710Z,24.17
2023-02-16T23:18:54.760Z,23.37
2023-02-16T23:21:30.848Z,21.53
2023-02-16T23:23:59.408Z,21.47
2023-02-16T23:26:28.890Z,21.43
2023-02-16T23:29:00.797Z,22.27
2023-02-16T23:31:32.846Z,22.43
2023-02-16T23:34:02.482Z,22.97
2023-02-16T23:36:30.521Z,22.87
2023-02-16T23:39:02.454Z,23.30
2023-02-16T23:41:29.980Z,21.50
2023-02-16T23:43:58.538Z,22.20
2023-02-16T23:46:27.695Z,22.03
2023-02-16T23:48:55.027Z,22.07
2023-02-16T23:51:22.597Z,23.13
2023-02-16T23:53:50.010Z,21.40
2023-02-16T23:56:21.291Z,22.07
2023-02-16T23:58:49.114Z,21.67
